sensor_id;sensor_type;location;lat;lon;timestamp;P1;durP1;ratioP1;P2;durP2;ratioP2
6926;SDS011;3503;50.07605000;8.86719200;2023-07-16T00:14:05;4.33;;;1.90;;
6926;SDS011;3503;50.07605000;8.86719200;2023-07-16T00:29:08;5.97;;;3.00;;
6926;SDS011;3503;50.07605000;8.86719200;2023-07-16T00:44:11;5.37;;;1.83;;
6926;SDS011;3503;50.07605000;8.86719200;2023-07-16T00:59:15;3.77;;;2.07;;
6926;SDS011;3503;50.07605000;8.86719200;2023-07-16T01:14:18;2.63;;;1.33;;
6926;SDS011;3503;50.07605000;8.86719200;2023-07-16T01:29:28;4.30;;;1.80;;
6926;SDS011;3503;50.07605000;8.86719200;2023-07-16T01:44:31;4.53;;;1.77;;
6926;SDS011;3503;50.07605000;8.86719200;2023-07-16T01:59:34;3.73;;;2.00;;
6926;SDS011;3503;50.07605000;8.86719200;2023-07-16T02:14:37;5.40;;;1.93;;
6926;SDS011;3503;50.07605000;8.86719200;2023-07-16T02:29:40;4.20;;;1.53;;
6926;SDS011;3503;50.07605000;8.86719200;2023-07-16T02:44:43;2.63;;;1.40;;
6926;SDS011;3503;50.07605000;8.86719200;2023-07-16T02:59:46;5.63;;;2.03;;
6926;SDS011;3503;50.07605000;8.86719200;2023-07-16T03:14:49;5.70;;;2.03;;
6926;SDS011;3503;50.07605000;8.86719200;2023-07-16T03:29:55;3.43;;;2.00;;
6926;SDS011;3503;50.07605000;8.86719200;2023-07-16T03:44:58;9.13;;;3.13;;
6926;SDS011;3503;50.07605000;8.86719200;2023-07-16T04:00:01;5.97;;;2.10;;
6926;SDS011;3503;50.07605000;8.86719200;2023-07-16T04:15:07;7.87;;;2.37;;
6926;SDS011;3503;50.07605000;8.86719200;2023-07-16T04:30:12;3.77;;;1.50;;
6926;SDS011;3503;50.07605000;8.86719200;2023-07-16T04:45:15;9.00;;;2.40;;
6926;SDS011;3503;50.07605000;8.86719200;2023-07-16T05:00:17;9.43;;;1.43;;
6926;SDS011;3503;50.07605000;8.86719200;2023-07-16T05:15:20;7.83;;;2.03;;
6926;SDS011;3503;50.07605000;8.86719200;2023-07-16T05:30:23;4.30;;;1.97;;
6926;SDS011;3503;50.07605000;8.86719200;2023-07-16T05:45:26;4.20;;;1.53;;
6926;SDS011;3503;50.07605000;8.86719200;2023-07-16T06:00:29;5.30;;;1.53;;
6926;SDS011;3503;50.07605000;8.86719200;2023-07-16T06:15:32;9.20;;;1.83;;
6926;SDS011;3503;50.07605000;8.86719200;2023-07-16T06:30:34;5.90;;;2.70;;
6926;SDS011;3503;50.07605000;8.86719200;2023-07-16T06:45:37;11.93;;;2.90;;
6926;SDS011;3503;50.07605000;8.86719200;2023-07-16T07:00:40;11.40;;;2.50;;
6926;SDS011;3503;50.07605000;8.86719200;2023-07-16T07:15:43;8.33;;;2.53;;
6926;SDS011;3503;50.07605000;8.86719200;2023-07-16T07:30:46;9.57;;;2.43;;
6926;SDS011;3503;50.07605000;8.86719200;2023-07-16T07:45:49;7.73;;;2.77;;
6926;SDS011;3503;50.07605000;8.86719200;2023-07-16T08:00:52;5.57;;;2.33;;
6926;SDS011;3503;50.07605000;8.86719200;2023-07-16T08:15:54;9.73;;;2.63;;
6926;SDS011;3503;50.07605000;8.86719200;2023-07-16T08:30:57;9.47;;;3.17;;
6926;SDS011;3503;50.07605000;8.86719200;2023-07-16T08:46:00;8.47;;;2.63;;
6926;SDS011;3503;50.07605000;8.86719200;2023-07-16T09:01:03;10.30;;;2.90;;
6926;SDS011;3503;50.07605000;8.86719200;2023-07-16T09:16:07;7.93;;;2.37;;
6926;SDS011;3503;50.07605000;8.86719200;2023-07-16T09:31:10;4.47;;;2.33;;
6926;SDS011;3503;50.07605000;8.86719200;2023-07-16T09:46:14;6.50;;;1.33;;
6926;SDS011;3503;50.07605000;8.86719200;2023-07-16T10:01:17;7.73;;;1.80;;
6926;SDS011;3503;50.07605000;8.86719200;2023-07-16T10:16:23;4.57;;;1.90;;
6926;SDS011;3503;50.07605000;8.86719200;2023-07-16T10:31:28;4.67;;;2.43;;
6926;SDS011;3503;50.07605000;8.86719200;2023-07-16T10:46:31;2.87;;;1.77;;
6926;SDS011;3503;50.07605000;8.86719200;2023-07-16T11:01:35;7.60;;;2.20;;
6926;SDS011;3503;50.07605000;8.86719200;2023-07-16T11:16:38;3.20;;;1.77;;
6926;SDS011;3503;50.07605000;8.86719200;2023-07-16T11:31:41;4.07;;;2.00;;
6926;SDS011;3503;50.07605000;8.86719200;2023-07-16T11:46:46;6.70;;;2.90;;
6926;SDS011;3503;50.07605000;8.86719200;2023-07-16T12:01:49;4.50;;;2.00;;
6926;SDS011;3503;50.07605000;8.86719200;2023-07-16T12:16:52;8.80;;;2.40;;
6926;SDS011;3503;50.07605000;8.86719200;2023-07-16T12:31:55;4.57;;;1.80;;
6926;SDS011;3503;50.07605000;8.86719200;2023-07-16T12:46:58;4.50;;;2.40;;
6926;SDS011;3503;50.07605000;8.86719200;2023-07-16T13:02:01;6.47;;;1.90;;
6926;SDS011;3503;50.07605000;8.86719200;2023-07-16T13:17:04;6.97;;;2.47;;
6926;SDS011;3503;50.07605000;8.86719200;2023-07-16T13:32:07;9.43;;;1.80;;
6926;SDS011;3503;50.07605000;8.86719200;2023-07-16T13:47:10;7.93;;;2.03;;
6926;SDS011;3503;50.07605000;8.86719200;2023-07-16T14:02:13;5.03;;;2.30;;
6926;SDS011;3503;50.07605000;8.86719200;2023-07-16T14:17:16;7.83;;;2.53;;
6926;SDS011;3503;50.07605000;8.86719200;2023-07-16T14:32:18;9.57;;;3.03;;
6926;SDS011;3503;50.07605000;8.86719200;2023-07-16T14:47:21;9.83;;;3.67;;
6926;SDS011;3503;50.07605000;8.86719200;2023-07-16T15:02:24;7.97;;;3.37;;
6926;SDS011;3503;50.07605000;8.86719200;2023-07-16T15:17:27;9.40;;;3.40;;
6926;SDS011;3503;50.07605000;8.86719200;2023-07-16T15:32:30;7.80;;;3.23;;
6926;SDS011;3503;50.07605000;8.86719200;2023-07-16T15:47:33;11.50;;;4.33;;
6926;SDS011;3503;50.07605000;8.86719200;2023-07-16T16:02:36;8.40;;;4.50;;
6926;SDS011;3503;50.07605000;8.86719200;2023-07-16T16:17:39;12.30;;;4.17;;
6926;SDS011;3503;50.07605000;8.86719200;2023-07-16T16:32:42;9.97;;;4.30;;
6926;SDS011;3503;50.07605000;8.86719200;2023-07-16T16:47:45;9.07;;;4.07;;
6926;SDS011;3503;50.07605000;8.86719200;2023-07-16T17:02:47;5.23;;;2.90;;
6926;SDS011;3503;50.07605000;8.86719200;2023-07-16T17:17:50;9.83;;;4.87;;
6926;SDS011;3503;50.07605000;8.86719200;2023-07-16T17:32:53;7.30;;;3.80;;
6926;SDS011;3503;50.07605000;8.86719200;2023-07-16T17:47:56;7.07;;;3.50;;
6926;SDS011;3503;50.07605000;8.86719200;2023-07-16T18:02:59;10.60;;;4.37;;
6926;SDS011;3503;50.07605000;8.86719200;2023-07-16T18:18:02;4.73;;;3.00;;
6926;SDS011;3503;50.07605000;8.86719200;2023-07-16T18:33:05;6.07;;;3.73;;
6926;SDS011;3503;50.07605000;8.86719200;2023-07-16T18:48:08;7.70;;;3.90;;
6926;SDS011;3503;50.07605000;8.86719200;2023-07-16T19:03:11;7.73;;;3.80;;
6926;SDS011;3503;50.07605000;8.86719200;2023-07-16T19:18:15;14.17;;;4.53;;
6926;SDS011;3503;50.07605000;8.86719200;2023-07-16T19:33:18;11.00;;;5.10;;
6926;SDS011;3503;50.07605000;8.86719200;2023-07-16T19:48:21;13.50;;;4.07;;
6926;SDS011;3503;50.07605000;8.86719200;2023-07-16T20:03:24;8.20;;;4.13;;
6926;SDS011;3503;50.07605000;8.86719200;2023-07-16T20:18:27;11.13;;;4.90;;
6926;SDS011;3503;50.07605000;8.86719200;2023-07-16T20:33:30;12.73;;;5.20;;
6926;SDS011;3503;50.07605000;8.86719200;2023-07-16T20:48:33;13.00;;;3.70;;
6926;SDS011;3503;50.07605000;8.86719200;2023-07-16T21:03:43;11.90;;;5.00;;
6926;SDS011;3503;50.07605000;8.86719200;2023-07-16T21:18:45;8.63;;;4.90;;
6926;SDS011;3503;50.07605000;8.86719200;2023-07-16T21:33:48;9.43;;;5.10;;
6926;SDS011;3503;50.07605000;8.86719200;2023-07-16T21:48:51;8.60;;;4.93;;
6926;SDS011;3503;50.07605000;8.86719200;2023-07-16T22:03:54;12.53;;;5.60;;
6926;SDS011;3503;50.07605000;8.86719200;2023-07-16T22:18:57;14.47;;;4.83;;
6926;SDS011;3503;50.07605000;8.86719200;2023-07-16T22:34:00;12.73;;;5.30;;
6926;SDS011;3503;50.07605000;8.86719200;2023-07-16T22:49:03;7.20;;;4.27;;
6926;SDS011;3503;50.07605000;8.86719200;2023-07-16T23:04:07;9.57;;;4.67;;
6926;SDS011;3503;50.07605000;8.86719200;2023-07-16T23:19:10;8.00;;;3.63;;
6926;SDS011;3503;50.07605000;8.86719200;2023-07-16T23:34:13;17.87;;;5.00;;
6926;SDS011;3503;50.07605000;8.86719200;2023-07-16T23:49:16;10.90;;;4.83;;
